createdAt,value
2017-09-08T00:00:35.740Z,14.33
2017-09-08T00:01:35.750Z,14.36
2017-09-08T00:02:35.844Z,14.36
2017-09-08T00:03:36.052Z,14.36
2017-09-08T00:04:35.733Z,14.36
2017-09-08T00:05:35.726Z,14.36
2017-09-08T00:06:36.032Z,14.44
2017-09-08T00:07:35.717Z,14.33
2017-09-08T00:08:35.716Z,14.28
2017-09-08T00:09:35.704Z,14.3
2017-09-08T00:10:35.709Z,14.33
2017-09-08T00:11:35.694Z,14.28
2017-09-08T00:12:35.690Z,14.31
2017-09-08T00:13:35.372Z,14.28
2017-09-08T00:14:35.677Z,14.3
2017-09-08T00:15:35.674Z,14.23
2017-09-08T00:16:35.669Z,14.33
2017-09-08T00:17:35.666Z,14.41
2017-09-08T00:18:35.345Z,14.26
2017-09-08T00:19:35.653Z,14.4
2017-09-08T00:20:35.646Z,14.38
2017-09-08T00:21:35.430Z,14.36
2017-09-08T00:22:35.637Z,14.3
2017-09-08T00:23:35.943Z,14.37
2017-09-08T00:24:35.630Z,14.3
2017-09-08T00:25:35.622Z,14.25
2017-09-08T00:26:35.304Z,14.25
2017-09-08T00:27:35.299Z,14.16
2017-09-08T00:28:35.296Z,14.18
2017-09-08T00:29:35.289Z,14.16
2017-09-08T00:30:35.906Z,14.23
2017-09-08T00:31:35.279Z,14.25
2017-09-08T00:32:35.784Z,14.31
2017-09-08T00:33:35.901Z,14.26
2017-09-08T00:34:35.579Z,14.26
2017-09-08T00:35:35.884Z,14.19
2017-09-08T00:36:35.564Z,14.2
2017-09-08T00:37:35.560Z,14.25
2017-09-08T00:38:35.658Z,14.28
2017-09-08T00:39:35.234Z,14.18
2017-09-08T00:40:35.643Z,14.23
2017-09-08T00:41:35.642Z,14.18
2017-09-08T00:42:35.218Z,14.12
2017-09-08T00:43:35.847Z,14.12
2017-09-08T00:44:35.520Z,14.11
2017-09-08T00:45:35.826Z,13.94
2017-09-08T00:46:35.197Z,13.94
2017-09-08T00:47:35.506Z,14
2017-09-08T00:48:35.813Z,13.82
2017-09-08T00:49:35.494Z,13.93
2017-09-08T00:50:35.490Z,13.93
2017-09-08T00:51:35.801Z,13.82
2017-09-08T00:52:35.897Z,13.76
2017-09-08T00:53:35.474Z,13.82
2017-09-08T00:54:35.469Z,13.85
2017-09-08T00:55:35.157Z,13.78
2017-09-08T00:56:35.144Z,13.73
2017-09-08T00:57:35.764Z,13.76
2017-09-08T00:58:35.760Z,13.8
2017-09-08T00:59:35.130Z,13.85
2017-09-08T01:00:35.747Z,13.82
2017-09-08T01:01:35.118Z,13.82
2017-09-08T01:02:35.431Z,13.91
2017-09-08T01:03:35.420Z,13.89
2017-09-08T01:04:35.418Z,13.82
2017-09-08T01:05:35.096Z,13.86
2017-09-08T01:06:35.089Z,13.83
2017-09-08T01:07:35.188Z,13.83
2017-09-08T01:08:35.709Z,13.89
2017-09-08T01:09:35.077Z,13.76
2017-09-08T01:10:35.695Z,13.8
2017-09-08T01:11:35.478Z,13.73
2017-09-08T01:12:35.685Z,13.76
2017-09-08T01:13:35.466Z,13.78
2017-09-08T01:14:35.368Z,13.68
2017-09-08T01:15:35.666Z,13.67
2017-09-08T01:16:35.668Z,13.58
2017-09-08T01:17:35.345Z,13.5
2017-09-08T01:18:35.340Z,13.49
2017-09-08T01:19:35.335Z,13.52
2017-09-08T01:20:35.113Z,13.54
2017-09-08T01:21:35.329Z,13.61
2017-09-08T01:22:35.006Z,13.6
2017-09-08T01:23:35.628Z,13.64
2017-09-08T01:24:35.617Z,13.65
2017-09-08T01:25:35.306Z,13.67
2017-09-08T01:26:35.609Z,13.73
2017-09-08T01:27:34.978Z,13.68
2017-09-08T01:28:34.973Z,13.58
2017-09-08T01:29:35.284Z,13.67
2017-09-08T01:30:34.962Z,13.71
2017-09-08T01:31:35.266Z,13.6
2017-09-08T01:32:35.576Z,13.62
2017-09-08T01:33:35.258Z,13.61
2017-09-08T01:34:34.938Z,13.62
2017-09-08T01:35:35.349Z,13.54
2017-09-08T01:36:35.241Z,13.47
2017-09-08T01:37:35.547Z,13.47
2017-09-08T01:38:35.233Z,13.52
2017-09-08T01:39:34.913Z,13.47
2017-09-08T01:40:35.220Z,13.4
2017-09-08T01:41:35.527Z,13.36
2017-09-08T01:42:34.897Z,13.33
2017-09-08T01:43:35.201Z,13.19
2017-09-08T01:44:34.884Z,13.27
2017-09-08T01:45:35.613Z,13.3
2017-09-08T01:46:35.500Z,13.16
2017-09-08T01:47:35.497Z,13.27
2017-09-08T01:48:35.492Z,13.28
2017-09-08T01:49:35.171Z,13.27
2017-09-08T01:50:35.174Z,13.17
2017-09-08T01:51:35.165Z,13.21
2017-09-08T01:52:35.154Z,13.06
2017-09-08T01:53:35.458Z,13.06
2017-09-08T01:54:35.142Z,13.02
2017-09-08T01:55:35.137Z,12.94
2017-09-08T01:56:35.646Z,12.98
2017-09-08T01:57:35.446Z,12.99
2017-09-08T01:58:35.126Z,13.03
2017-09-08T01:59:35.117Z,13.03
2017-09-08T02:00:35.109Z,13.03
2017-09-08T02:01:34.991Z,13.05
2017-09-08T02:02:35.414Z,13.05
2017-09-08T02:03:35.409Z,13.11
2017-09-08T02:04:34.776Z,13.21
2017-09-08T02:05:34.769Z,13.12
2017-09-08T02:06:34.865Z,13.21
2017-09-08T02:07:35.075Z,13.23
2017-09-08T02:08:35.068Z,13.24
2017-09-08T02:09:35.065Z,13.3
2017-09-08T02:10:35.059Z,13.21
2017-09-08T02:11:35.371Z,13.23
2017-09-08T02:12:35.247Z,13.33
2017-09-08T02:13:35.040Z,13.31
2017-09-08T02:14:35.357Z,13.3
2017-09-08T02:15:35.340Z,13.31
2017-09-08T02:16:35.334Z,13.28
2017-09-08T02:17:35.332Z,13.27
2017-09-08T02:18:35.326Z,13.2
2017-09-08T02:19:35.007Z,13.21
2017-09-08T02:20:35.009Z,13.2
2017-09-08T02:21:34.998Z,13.21
2017-09-08T02:22:34.990Z,13.17
2017-09-08T02:23:34.987Z,13.13
2017-09-08T02:24:35.290Z,13.17
2017-09-08T02:25:34.977Z,13.27
2017-09-08T02:26:35.275Z,13.16
2017-09-08T02:27:34.962Z,13.27
2017-09-08T02:28:35.268Z,13.27
2017-09-08T02:29:34.954Z,13.24
2017-09-08T02:30:34.945Z,13.16
2017-09-08T02:31:35.258Z,13.26
2017-09-08T02:32:34.721Z,13.23
2017-09-08T02:33:34.614Z,13.17
2017-09-08T02:34:34.611Z,13.19
2017-09-08T02:35:34.605Z,13.2
2017-09-08T02:36:34.909Z,13.16
2017-09-08T02:37:34.905Z,13.26
2017-09-08T02:38:34.907Z,13.19
2017-09-08T02:39:35.212Z,13.27
2017-09-08T02:40:35.208Z,13.24
2017-09-08T02:41:34.905Z,13.27
2017-09-08T02:42:34.564Z,13.16
2017-09-08T02:43:35.192Z,13.28
2017-09-08T02:44:35.278Z,13.13
2017-09-08T02:45:34.547Z,13.31
2017-09-08T02:46:34.954Z,13.2
2017-09-08T02:47:34.857Z,13.2
2017-09-08T02:48:35.158Z,13.21
2017-09-08T02:49:34.526Z,13.26
2017-09-08T02:50:35.149Z,13.26
2017-09-08T02:51:35.144Z,13.23
2017-09-08T02:52:34.926Z,13.19
2017-09-08T02:53:34.604Z,13.19
2017-09-08T02:54:34.498Z,13.27
2017-09-08T02:55:35.116Z,13.26
2017-09-08T02:56:34.802Z,13.17
2017-09-08T02:57:34.481Z,13.27
2017-09-08T02:58:34.788Z,13.3
2017-09-08T02:59:34.568Z,13.27
2017-09-08T03:00:34.464Z,13.16
2017-09-08T03:01:34.561Z,13.13
2017-09-08T03:02:34.870Z,13.28
2017-09-08T03:03:35.076Z,13.3
2017-09-08T03:04:34.859Z,13.2
2017-09-08T03:05:35.066Z,13.3
2017-09-08T03:06:35.057Z,13.27
2017-09-08T03:07:35.052Z,13.12
2017-09-08T03:08:34.836Z,13.2
2017-09-08T03:09:35.047Z,13.23
2017-09-08T03:10:35.035Z,13.33
2017-09-08T03:11:34.716Z,13.24
2017-09-08T03:12:34.500Z,13.27
2017-09-08T03:13:35.018Z,13.33
2017-09-08T03:14:34.798Z,13.28
2017-09-08T03:15:34.696Z,13.2
2017-09-08T03:16:34.999Z,13.26
2017-09-08T03:17:34.371Z,13.26
2017-09-08T03:18:34.717Z,13.33
2017-09-08T03:19:34.984Z,13.31
2017-09-08T03:20:34.665Z,13.4
2017-09-08T03:21:34.660Z,13.42
2017-09-08T03:22:34.969Z,13.3
2017-09-08T03:23:34.335Z,13.36
2017-09-08T03:24:35.058Z,13.37
2017-09-08T03:25:34.643Z,13.33
2017-09-08T03:26:34.317Z,13.36
2017-09-08T03:27:34.941Z,13.37
2017-09-08T03:28:34.937Z,13.4
2017-09-08T03:29:34.613Z,13.39
2017-09-08T03:30:34.933Z,13.4
2017-09-08T03:31:34.921Z,13.33
2017-09-08T03:32:34.597Z,13.36
2017-09-08T03:33:34.593Z,13.37
2017-09-08T03:34:34.902Z,13.36
2017-09-08T03:35:34.270Z,13.27
2017-09-08T03:36:34.364Z,13.4
2017-09-08T03:37:34.257Z,13.36
2017-09-08T03:38:34.879Z,13.39
2017-09-08T03:39:34.870Z,13.37
2017-09-08T03:40:34.984Z,13.39
2017-09-08T03:41:34.236Z,13.31
2017-09-08T03:42:34.544Z,13.37
2017-09-08T03:43:34.852Z,13.37
2017-09-08T03:44:34.845Z,13.46
2017-09-08T03:45:34.525Z,13.37
2017-09-08T03:46:34.516Z,13.49
2017-09-08T03:47:34.612Z,13.5
2017-09-08T03:48:34.823Z,13.54
2017-09-08T03:49:34.506Z,13.49
2017-09-08T03:50:34.909Z,13.5
2017-09-08T03:51:34.179Z,13.46
2017-09-08T03:52:34.487Z,13.36
2017-09-08T03:53:34.484Z,13.33
2017-09-08T03:54:34.473Z,13.47
2017-09-08T03:55:34.465Z,13.47
2017-09-08T03:56:34.467Z,13.47
2017-09-08T03:57:34.143Z,13.5
2017-09-08T03:58:34.865Z,13.52
2017-09-08T03:59:34.134Z,13.49
2017-09-08T04:00:34.443Z,13.55
2017-09-08T04:01:34.436Z,13.52
2017-09-08T04:02:34.426Z,13.52
2017-09-08T04:03:34.736Z,13.52
2017-09-08T04:04:34.420Z,13.5
2017-09-08T04:05:34.409Z,13.49
2017-09-08T04:06:34.090Z,13.47
2017-09-08T04:07:34.402Z,13.49
2017-09-08T04:08:34.396Z,13.46
2017-09-08T04:09:34.077Z,13.5
2017-09-08T04:10:34.383Z,13.49
2017-09-08T04:11:34.482Z,13.5
2017-09-08T04:12:34.369Z,13.49
2017-09-08T04:13:34.367Z,13.52
2017-09-08T04:14:34.361Z,13.55
2017-09-08T04:15:34.356Z,13.61
2017-09-08T04:16:34.665Z,13.58
2017-09-08T04:17:34.344Z,13.6
2017-09-08T04:18:34.338Z,13.62
2017-09-08T04:19:34.333Z,13.68
2017-09-08T04:20:34.636Z,13.65
2017-09-08T04:21:34.322Z,13.67
2017-09-08T04:22:34.628Z,13.67
2017-09-08T04:23:34.310Z,13.62
2017-09-08T04:24:34.621Z,13.73
2017-09-08T04:25:34.300Z,13.67
2017-09-08T04:26:33.980Z,13.64
2017-09-08T04:27:33.972Z,13.61
2017-09-08T04:28:34.700Z,13.61
2017-09-08T04:29:34.273Z,13.57
2017-09-08T04:30:33.957Z,13.58
2017-09-08T04:31:34.262Z,13.54
2017-09-08T04:32:34.258Z,13.57
2017-09-08T04:33:34.598Z,13.54
2017-09-08T04:34:34.248Z,13.5
2017-09-08T04:35:34.562Z,13.52
2017-09-08T04:36:34.235Z,13.55
2017-09-08T04:37:34.228Z,13.55
2017-09-08T04:38:34.537Z,13.58
2017-09-08T04:39:34.529Z,13.57
2017-09-08T04:40:33.901Z,13.6
2017-09-08T04:41:34.519Z,13.58
2017-09-08T04:42:34.514Z,13.55
2017-09-08T04:43:34.193Z,13.58
2017-09-08T04:44:34.186Z,13.58
2017-09-08T04:45:34.184Z,13.54
2017-09-08T04:46:34.178Z,13.55
2017-09-08T04:47:34.485Z,13.54
2017-09-08T04:48:34.170Z,13.65
2017-09-08T04:49:34.160Z,13.62
2017-09-08T04:50:34.159Z,13.67
2017-09-08T04:51:34.463Z,13.65
2017-09-08T04:52:34.140Z,13.71
2017-09-08T04:53:34.274Z,13.7
2017-09-08T04:54:34.447Z,13.67
2017-09-08T04:55:33.812Z,13.78
2017-09-08T04:56:34.561Z,13.78
2017-09-08T04:57:33.801Z,13.82
2017-09-08T04:58:34.427Z,13.79
2017-09-08T04:59:34.421Z,13.86
2017-09-08T05:00:34.098Z,13.78
2017-09-08T05:01:34.093Z,13.78
2017-09-08T05:02:34.400Z,13.78
2017-09-08T05:03:34.089Z,13.68
2017-09-08T05:04:34.275Z,13.71
2017-09-08T05:05:33.755Z,13.76
2017-09-08T05:06:34.060Z,13.7
2017-09-08T05:07:33.845Z,13.7
2017-09-08T05:08:33.736Z,13.7
2017-09-08T05:09:34.151Z,13.76
2017-09-08T05:10:33.727Z,13.82
2017-09-08T05:11:34.037Z,13.73
2017-09-08T05:12:34.027Z,13.75
2017-09-08T05:13:34.022Z,13.64
2017-09-08T05:14:34.017Z,13.64
2017-09-08T05:15:34.324Z,13.65
2017-09-08T05:16:34.322Z,13.67
2017-09-08T05:17:33.687Z,13.73
2017-09-08T05:18:34.310Z,13.65
2017-09-08T05:19:33.990Z,13.79
2017-09-08T05:20:34.082Z,13.73
2017-09-08T05:21:33.977Z,13.71
2017-09-08T05:22:34.286Z,13.75
2017-09-08T05:23:34.276Z,13.78
2017-09-08T05:24:33.746Z,13.71
2017-09-08T05:25:34.265Z,13.68
2017-09-08T05:26:33.636Z,13.7
2017-09-08T05:27:33.946Z,13.76
2017-09-08T05:28:33.938Z,13.68
2017-09-08T05:29:34.035Z,13.8
2017-09-08T05:30:33.924Z,13.78
2017-09-08T05:31:33.926Z,13.83
2017-09-08T05:32:33.698Z,13.76
2017-09-08T05:33:34.222Z,13.83
2017-09-08T05:34:34.002Z,13.83
2017-09-08T05:35:33.584Z,13.79
2017-09-08T05:36:33.893Z,13.91
2017-09-08T05:37:33.571Z,13.94
2017-09-08T05:38:33.564Z,13.98
2017-09-08T05:39:34.288Z,13.93
2017-09-08T05:40:33.974Z,13.94
2017-09-08T05:41:34.174Z,13.86
2017-09-08T05:42:34.267Z,13.89
2017-09-08T05:43:33.850Z,13.89
2017-09-08T05:44:33.866Z,13.79
2017-09-08T05:45:33.847Z,13.86
2017-09-08T05:46:34.243Z,13.86
2017-09-08T05:47:33.826Z,13.95
2017-09-08T05:48:34.132Z,13.87
2017-09-08T05:49:34.129Z,13.89
2017-09-08T05:50:34.224Z,13.91
2017-09-08T05:51:33.908Z,13.86
2017-09-08T05:52:33.801Z,13.94
2017-09-08T05:53:34.105Z,13.94
2017-09-08T05:54:33.793Z,13.95
2017-09-08T05:55:34.202Z,13.97
2017-09-08T05:56:33.566Z,14.08
2017-09-08T05:57:33.458Z,13.94
2017-09-08T05:58:33.773Z,14.07
2017-09-08T05:59:34.070Z,14.05
2017-09-08T06:00:33.438Z,14.05
2017-09-08T06:01:33.846Z,14.07
2017-09-08T06:02:34.055Z,14.08
2017-09-08T06:03:33.834Z,14.07
2017-09-08T06:04:33.729Z,14.18
2017-09-08T06:05:34.036Z,14.15
2017-09-08T06:06:33.715Z,14.18
2017-09-08T06:07:34.027Z,14.28
2017-09-08T06:08:34.127Z,14.25
2017-09-08T06:09:33.700Z,14.26
2017-09-08T06:10:33.695Z,14.3
2017-09-08T06:11:33.695Z,14.36
2017-09-08T06:12:33.372Z,14.37
2017-09-08T06:13:33.682Z,14.36
2017-09-08T06:14:33.771Z,14.38
2017-09-08T06:15:33.351Z,14.41
2017-09-08T06:16:33.658Z,14.38
2017-09-08T06:17:33.653Z,14.3
2017-09-08T06:18:33.964Z,14.37
2017-09-08T06:19:33.957Z,14.38
2017-09-08T06:20:33.635Z,14.38
2017-09-08T06:21:33.631Z,14.38
2017-09-08T06:22:33.311Z,14.38
2017-09-08T06:23:33.622Z,14.51
2017-09-08T06:24:33.935Z,14.37
2017-09-08T06:25:33.293Z,14.38
2017-09-08T06:26:33.604Z,14.43
2017-09-08T06:27:33.911Z,14.45
2017-09-08T06:28:33.590Z,14.52
2017-09-08T06:29:33.586Z,14.53
2017-09-08T06:30:33.680Z,14.41
2017-09-08T06:31:33.573Z,14.48
2017-09-08T06:32:33.670Z,14.45
2017-09-08T06:33:33.563Z,14.44
2017-09-08T06:34:33.341Z,14.4
2017-09-08T06:35:33.551Z,14.44
2017-09-08T06:36:33.587Z,14.48
2017-09-08T06:37:33.538Z,14.58
2017-09-08T06:38:33.847Z,14.61
2017-09-08T06:39:33.838Z,14.59
2017-09-08T06:40:33.837Z,14.61
2017-09-08T06:41:33.617Z,14.7
2017-09-08T06:42:33.196Z,14.62
2017-09-08T06:43:33.822Z,14.73
2017-09-08T06:44:33.911Z,14.67
2017-09-08T06:45:33.601Z,14.79
2017-09-08T06:46:33.800Z,14.71
2017-09-08T06:47:33.803Z,14.68
2017-09-08T06:48:33.575Z,14.73
2017-09-08T06:49:33.256Z,14.74
2017-09-08T06:50:33.473Z,14.77
2017-09-08T06:51:33.872Z,14.68
2017-09-08T06:52:33.767Z,14.63
2017-09-08T06:53:33.134Z,14.81
2017-09-08T06:54:33.757Z,14.74
2017-09-08T06:55:33.440Z,14.81
2017-09-08T06:56:33.431Z,14.85
2017-09-08T06:57:33.632Z,14.85
2017-09-08T06:58:33.521Z,14.77
2017-09-08T06:59:33.415Z,14.89
2017-09-08T07:00:33.509Z,14.82
2017-09-08T07:01:33.720Z,14.87
2017-09-08T07:02:33.710Z,14.82
2017-09-08T07:03:33.702Z,14.78
2017-09-08T07:04:33.385Z,14.79
2017-09-08T07:05:33.477Z,14.85
2017-09-08T07:06:33.058Z,14.85
2017-09-08T07:07:33.681Z,14.86
2017-09-08T07:08:33.469Z,14.9
2017-09-08T07:09:33.356Z,14.99
2017-09-08T07:10:33.663Z,14.93
2017-09-08T07:11:33.344Z,15.14
2017-09-08T07:12:33.652Z,15.02
2017-09-08T07:13:33.118Z,14.97
2017-09-08T07:14:33.015Z,15.02
2017-09-08T07:15:33.007Z,15.07
2017-09-08T07:16:33.316Z,15.02
2017-09-08T07:17:33.724Z,15.05
2017-09-08T07:18:33.717Z,14.99
2017-09-08T07:19:33.398Z,14.96
2017-09-08T07:20:33.613Z,14.97
2017-09-08T07:21:33.602Z,15.04
2017-09-08T07:22:33.281Z,14.99
2017-09-08T07:23:33.376Z,14.99
2017-09-08T07:24:33.586Z,14.97
2017-09-08T07:25:33.364Z,14.94
2017-09-08T07:26:33.256Z,14.93
2017-09-08T07:27:33.664Z,14.97
2017-09-08T07:28:33.561Z,15.04
2017-09-08T07:29:33.246Z,15.12
2017-09-08T07:30:32.923Z,15.14
2017-09-08T07:31:33.648Z,15.15
2017-09-08T07:32:33.536Z,15.15
2017-09-08T07:33:33.530Z,15.12
2017-09-08T07:34:33.526Z,15.23
2017-09-08T07:35:33.207Z,15.18
2017-09-08T07:36:33.405Z,15.27
2017-09-08T07:37:33.510Z,15.19
2017-09-08T07:38:33.505Z,15.35
2017-09-08T07:39:33.284Z,15.35
2017-09-08T07:40:33.492Z,15.35
2017-09-08T07:41:33.174Z,15.27
2017-09-08T07:42:33.168Z,15.37
2017-09-08T07:43:33.162Z,15.41
2017-09-08T07:44:33.156Z,15.48
2017-09-08T07:45:33.153Z,15.43
2017-09-08T07:46:33.146Z,15.43
2017-09-08T07:47:32.827Z,15.36
2017-09-08T07:48:33.446Z,15.41
2017-09-08T07:49:33.227Z,15.48
2017-09-08T07:50:33.440Z,15.55
2017-09-08T07:51:33.115Z,15.48
2017-09-08T07:52:33.431Z,15.54
2017-09-08T07:53:33.418Z,15.52
2017-09-08T07:54:33.098Z,15.59
2017-09-08T07:55:33.096Z,15.63
2017-09-08T07:56:33.400Z,15.62
2017-09-08T07:57:32.769Z,15.6
2017-09-08T07:58:32.765Z,15.75
2017-09-08T07:59:33.078Z,15.67
2017-09-08T08:00:33.168Z,15.73
2017-09-08T08:01:33.063Z,15.72
2017-09-08T08:02:33.369Z,15.81
2017-09-08T08:03:33.368Z,15.85
2017-09-08T08:04:32.731Z,15.91
2017-09-08T08:05:33.139Z,15.91
2017-09-08T08:06:33.343Z,15.85
2017-09-08T08:07:33.029Z,15.85
2017-09-08T08:08:33.022Z,15.78
2017-09-08T08:09:33.333Z,15.88
2017-09-08T08:10:33.012Z,15.92
2017-09-08T08:11:32.691Z,15.92
2017-09-08T08:12:32.689Z,15.96
2017-09-08T08:13:33.304Z,15.96
2017-09-08T08:14:33.088Z,15.99
2017-09-08T08:15:33.293Z,15.99
2017-09-08T08:16:32.976Z,16.02
2017-09-08T08:17:32.970Z,15.98
2017-09-08T08:18:32.965Z,16.09
2017-09-08T08:19:32.960Z,16.21
2017-09-08T08:20:32.953Z,16.28
2017-09-08T08:21:33.267Z,16.21
2017-09-08T08:22:33.257Z,16.26
2017-09-08T08:23:33.257Z,16.21
2017-09-08T08:24:33.249Z,16.24
2017-09-08T08:25:33.240Z,16.34
2017-09-08T08:26:32.609Z,16.36
2017-09-08T08:27:32.918Z,16.47
2017-09-08T08:28:33.229Z,16.57
2017-09-08T08:29:33.220Z,16.54
2017-09-08T08:30:33.442Z,16.61
2017-09-08T08:31:32.996Z,16.69
2017-09-08T08:32:32.986Z,16.59
2017-09-08T08:33:32.884Z,16.66
2017-09-08T08:34:32.879Z,16.77
2017-09-08T08:35:32.873Z,16.79
2017-09-08T08:36:32.967Z,16.77
2017-09-08T08:37:32.970Z,16.72
2017-09-08T08:38:32.859Z,16.74
2017-09-08T08:39:32.953Z,16.76
2017-09-08T08:40:33.197Z,16.79
2017-09-08T08:41:33.155Z,16.73
2017-09-08T08:42:32.836Z,16.82
2017-09-08T08:43:32.925Z,16.89
2017-09-08T08:44:32.509Z,16.8
2017-09-08T08:45:33.142Z,16.89
2017-09-08T08:46:32.811Z,16.94
2017-09-08T08:47:33.122Z,16.97
2017-09-08T08:48:33.115Z,17.04
2017-09-08T08:49:32.795Z,17.19
2017-09-08T08:50:32.788Z,17.2
2017-09-08T08:51:33.100Z,17.13
2017-09-08T08:52:32.467Z,17.13
2017-09-08T08:53:33.187Z,17.1
2017-09-08T08:54:32.769Z,17.16
2017-09-08T08:55:32.768Z,17.27
2017-09-08T08:56:32.760Z,17.32
2017-09-08T08:57:33.170Z,17.27
2017-09-08T08:58:32.747Z,17.38
2017-09-08T08:59:32.742Z,17.39
2017-09-08T09:00:33.048Z,17.35
2017-09-08T09:01:32.416Z,17.42
2017-09-08T09:02:32.730Z,17.46
2017-09-08T09:03:33.037Z,17.56
2017-09-08T09:04:32.718Z,17.63
2017-09-08T09:05:32.397Z,17.6
2017-09-08T09:06:32.392Z,17.72
2017-09-08T09:07:32.732Z,17.75
2017-09-08T09:08:32.690Z,17.57
2017-09-08T09:09:32.688Z,17.53
2017-09-08T09:10:32.684Z,17.47
2017-09-08T09:11:32.993Z,17.37
2017-09-08T09:12:32.672Z,17.28
2017-09-08T09:13:32.669Z,17.31
2017-09-08T09:14:32.974Z,17.34
2017-09-08T09:15:32.446Z,17.37
2017-09-08T09:16:32.974Z,17.34
2017-09-08T09:17:32.647Z,17.37
2017-09-08T09:18:32.644Z,17.38
2017-09-08T09:19:32.636Z,17.37
2017-09-08T09:20:32.317Z,17.46
2017-09-08T09:21:32.314Z,17.46
2017-09-08T09:22:32.624Z,17.52
2017-09-08T09:23:32.617Z,17.44
2017-09-08T09:24:32.608Z,17.47
2017-09-08T09:25:32.705Z,17.46
2017-09-08T09:26:32.382Z,17.47
2017-09-08T09:27:32.590Z,17.53
2017-09-08T09:28:32.275Z,17.5
2017-09-08T09:29:32.910Z,17.52
2017-09-08T09:30:32.676Z,17.5
2017-09-08T09:31:32.571Z,17.54
2017-09-08T09:32:32.677Z,17.47
2017-09-08T09:33:32.879Z,17.54
2017-09-08T09:34:32.557Z,17.59
2017-09-08T09:35:32.237Z,17.57
2017-09-08T09:36:32.544Z,17.69
2017-09-08T09:37:32.537Z,17.72
2017-09-08T09:38:32.532Z,17.75
2017-09-08T09:39:32.638Z,17.75
2017-09-08T09:40:32.626Z,17.71
2017-09-08T09:41:32.206Z,17.82
2017-09-08T09:42:32.199Z,17.82
2017-09-08T09:43:32.193Z,17.72
2017-09-08T09:44:32.913Z,17.87
2017-09-08T09:45:32.494Z,17.82
2017-09-08T09:46:32.805Z,17.71
2017-09-08T09:47:32.174Z,17.8
2017-09-08T09:48:32.481Z,17.78
2017-09-08T09:49:32.789Z,17.91
2017-09-08T09:50:32.768Z,17.82
2017-09-08T09:51:32.883Z,17.82
2017-09-08T09:52:32.779Z,17.79
2017-09-08T09:53:32.765Z,17.78
2017-09-08T09:54:32.444Z,17.82
2017-09-08T09:55:32.544Z,17.78
2017-09-08T09:56:32.755Z,17.82
2017-09-08T09:57:32.437Z,17.9
2017-09-08T09:58:32.430Z,17.91
2017-09-08T09:59:32.424Z,17.9
2017-09-08T10:00:32.421Z,17.8
2017-09-08T10:01:32.612Z,17.8
2017-09-08T10:02:32.406Z,17.78
2017-09-08T10:03:32.723Z,17.84
2017-09-08T10:04:32.086Z,17.72
2017-09-08T10:05:32.711Z,17.72
2017-09-08T10:06:32.068Z,17.66
2017-09-08T10:07:32.066Z,17.71
2017-09-08T10:08:32.370Z,17.63
2017-09-08T10:09:32.470Z,17.71
2017-09-08T10:10:32.048Z,17.66
2017-09-08T10:11:32.045Z,17.57
2017-09-08T10:12:32.454Z,17.66
2017-09-08T10:13:32.665Z,17.73
2017-09-08T10:14:32.027Z,17.68
2017-09-08T10:15:32.335Z,17.79
2017-09-08T10:16:32.333Z,17.75
2017-09-08T10:17:32.325Z,17.87
2017-09-08T10:18:32.378Z,17.78
2017-09-08T10:19:32.317Z,17.86
2017-09-08T10:20:31.995Z,17.97
2017-09-08T10:21:32.305Z,17.95
2017-09-08T10:22:32.301Z,17.94
2017-09-08T10:23:32.613Z,18.03
2017-09-08T10:24:32.609Z,18.08
2017-09-08T10:25:32.286Z,18.15
2017-09-08T10:26:32.275Z,18.23
2017-09-08T10:27:32.372Z,18.19
2017-09-08T10:28:32.266Z,18.28
2017-09-08T10:29:32.260Z,18.31
2017-09-08T10:30:32.574Z,18.26
2017-09-08T10:31:32.257Z,18.3
2017-09-08T10:32:32.246Z,18.48
2017-09-08T10:33:31.926Z,18.41
2017-09-08T10:34:32.245Z,18.33
2017-09-08T10:35:32.233Z,18.45
2017-09-08T10:36:32.538Z,18.3
2017-09-08T10:37:32.534Z,18.18
2017-09-08T10:38:31.900Z,18.19
2017-09-08T10:39:31.894Z,18.12
2017-09-08T10:40:31.890Z,18.05
2017-09-08T10:41:31.885Z,18.13
2017-09-08T10:42:31.881Z,18.18
2017-09-08T10:43:32.505Z,18.18
2017-09-08T10:44:31.870Z,18.27
2017-09-08T10:45:32.176Z,18.27
2017-09-08T10:46:32.488Z,18.24
2017-09-08T10:47:32.165Z,18.24
2017-09-08T10:48:32.477Z,18.31
2017-09-08T10:49:32.464Z,18.33
2017-09-08T10:50:32.149Z,18.42
2017-09-08T10:51:32.456Z,18.45
2017-09-08T10:52:32.145Z,18.58
2017-09-08T10:53:32.546Z,18.52
2017-09-08T10:54:32.126Z,18.46
2017-09-08T10:55:32.122Z,18.49
2017-09-08T10:56:32.218Z,18.52
2017-09-08T10:57:32.532Z,18.52
2017-09-08T10:58:32.114Z,18.6
2017-09-08T10:59:32.101Z,18.61
2017-09-08T11:00:32.234Z,18.67
2017-09-08T11:01:31.879Z,18.66
2017-09-08T11:02:31.773Z,18.71
2017-09-08T11:03:32.495Z,18.73
2017-09-08T11:04:32.073Z,18.68
2017-09-08T11:05:32.169Z,18.74
2017-09-08T11:06:31.749Z,18.71
2017-09-08T11:07:32.066Z,18.71
2017-09-08T11:08:32.366Z,18.73
2017-09-08T11:09:32.049Z,18.67
2017-09-08T11:10:32.358Z,18.7
2017-09-08T11:11:31.722Z,18.66
2017-09-08T11:12:32.349Z,18.78
2017-09-08T11:13:32.343Z,18.82
2017-09-08T11:14:31.714Z,18.89
2017-09-08T11:15:31.702Z,18.96
2017-09-08T11:16:32.014Z,19.07
2017-09-08T11:17:32.333Z,18.97
2017-09-08T11:18:32.313Z,19.07
2017-09-08T11:19:32.095Z,19.19
2017-09-08T11:20:31.989Z,19.2
2017-09-08T11:21:31.672Z,19.15
2017-09-08T11:22:31.665Z,19.16
2017-09-08T11:23:31.973Z,19.15
2017-09-08T11:24:31.970Z,19.15
2017-09-08T11:25:31.962Z,19
2017-09-08T11:26:31.643Z,19
2017-09-08T11:27:31.955Z,19.08
2017-09-08T11:28:31.634Z,19.01
2017-09-08T11:29:31.942Z,18.98
2017-09-08T11:30:32.350Z,19.01
2017-09-08T11:31:31.618Z,18.98
2017-09-08T11:32:32.241Z,18.97
2017-09-08T11:33:31.923Z,19.07
2017-09-08T11:34:31.923Z,19.05
2017-09-08T11:35:32.230Z,19.09
2017-09-08T11:36:31.692Z,19.15
2017-09-08T11:37:31.900Z,19.16
2017-09-08T11:38:31.894Z,19.2
2017-09-08T11:39:31.900Z,19.2
2017-09-08T11:40:32.303Z,19.2
2017-09-08T11:41:31.566Z,19.17
2017-09-08T11:42:31.878Z,19.19
2017-09-08T11:43:32.181Z,19.15
2017-09-08T11:44:31.860Z,19.27
2017-09-08T11:45:31.545Z,19.23
2017-09-08T11:46:31.852Z,19.3
2017-09-08T11:47:31.852Z,19.26
2017-09-08T11:48:31.842Z,19.37
2017-09-08T11:49:31.836Z,19.34
2017-09-08T11:50:31.517Z,19.47
2017-09-08T11:51:31.513Z,19.45
2017-09-08T11:52:31.825Z,19.39
2017-09-08T11:53:31.913Z,19.42
2017-09-08T11:54:31.810Z,19.45
2017-09-08T11:55:32.123Z,19.48
2017-09-08T11:56:31.489Z,19.48
2017-09-08T11:57:31.794Z,19.44
2017-09-08T11:58:32.205Z,19.39
2017-09-08T11:59:31.472Z,19.44
2017-09-08T12:00:31.779Z,19.38
2017-09-08T12:01:31.772Z,19.37
2017-09-08T12:02:31.767Z,19.47
2017-09-08T12:03:32.076Z,19.47
2017-09-08T12:04:31.759Z,19.42
2017-09-08T12:05:31.439Z,19.42
2017-09-08T12:06:31.748Z,19.48
2017-09-08T12:07:31.428Z,19.49
2017-09-08T12:08:31.737Z,19.53
2017-09-08T12:09:32.053Z,19.7
2017-09-08T12:10:31.728Z,19.71
2017-09-08T12:11:32.045Z,19.71
2017-09-08T12:12:31.719Z,19.71
2017-09-08T12:13:31.712Z,19.67
2017-09-08T12:14:32.022Z,19.75
2017-09-08T12:15:31.705Z,19.77
2017-09-08T12:16:31.696Z,19.84
2017-09-08T12:17:32.005Z,19.78
2017-09-08T12:18:31.686Z,19.75
2017-09-08T12:19:31.996Z,19.81
2017-09-08T12:20:31.674Z,19.87
2017-09-08T12:21:31.775Z,19.82
2017-09-08T12:22:31.669Z,19.72
2017-09-08T12:23:31.774Z,19.77
2017-09-08T12:24:31.658Z,19.79
2017-09-08T12:25:31.963Z,19.77
2017-09-08T12:26:31.650Z,19.81
2017-09-08T12:27:31.642Z,19.85
2017-09-08T12:28:31.953Z,19.74
2017-09-08T12:29:31.630Z,19.89
2017-09-08T12:30:31.628Z,19.87
2017-09-08T12:31:31.934Z,19.79
2017-09-08T12:32:31.613Z,19.87
2017-09-08T12:33:31.610Z,19.78
2017-09-08T12:34:31.918Z,19.84
2017-09-08T12:35:31.287Z,19.81
2017-09-08T12:36:31.284Z,19.78
2017-09-08T12:37:31.902Z,19.87
2017-09-08T12:38:31.589Z,19.87
2017-09-08T12:39:31.268Z,19.78
2017-09-08T12:40:31.886Z,19.9
2017-09-08T12:41:31.570Z,19.81
2017-09-08T12:42:31.887Z,19.77
2017-09-08T12:43:31.248Z,19.77
2017-09-08T12:44:31.555Z,19.81
2017-09-08T12:45:31.553Z,19.74
2017-09-08T12:46:31.332Z,19.82
2017-09-08T12:47:31.550Z,19.85
2017-09-08T12:48:31.848Z,19.94
2017-09-08T12:49:31.531Z,19.9
2017-09-08T12:50:31.836Z,19.92
2017-09-08T12:51:31.835Z,20.03
2017-09-08T12:52:31.517Z,20.02
2017-09-08T12:53:31.820Z,19.97
2017-09-08T12:54:31.506Z,19.93
2017-09-08T12:55:31.810Z,20